sensor_id;sensor_type;location;lat;lon;timestamp;temperature;humidity
20057;DHT22;10189;49.546;7.906;2023-01-25T00:00:08;-0.70;99.90
20057;DHT22;10189;49.546;7.906;2023-01-25T00:02:35;-0.80;99.90
20057;DHT22;10189;49.546;7.906;2023-01-25T00:05:01;-0.80;99.90
20057;DHT22;10189;49.546;7.906;2023-01-25T00:07:26;-0.80;99.90
20057;DHT22;10189;49.546;7.906;2023-01-25T00:09:52;-0.80;99.90
20057;DHT22;10189;49.546;7.906;2023-01-25T00:12:18;-0.90;99.90
20057;DHT22;10189;49.546;7.906;2023-01-25T00:14:44;-0.80;99.90
20057;DHT22;10189;49.546;7.906;2023-01-25T00:17:10;-0.80;99.90
20057;DHT22;10189;49.546;7.906;2023-01-25T00:19:36;-0.90;99.90
20057;DHT22;10189;49.546;7.906;2023-01-25T00:22:02;-0.80;99.90
20057;DHT22;10189;49.546;7.906;2023-01-25T00:24:28;-0.80;99.90
20057;DHT22;10189;49.546;7.906;2023-01-25T00:26:53;-0.80;99.90
20057;DHT22;10189;49.546;7.906;2023-01-25T00:29:19;-0.90;99.90
20057;DHT22;10189;49.546;7.906;2023-01-25T00:36:51;-0.90;99.90
20057;DHT22;10189;49.546;7.906;2023-01-25T00:39:26;-0.90;99.90
20057;DHT22;10189;49.546;7.906;2023-01-25T00:41:53;-0.80;99.90
20057;DHT22;10189;49.546;7.906;2023-01-25T00:44:20;-0.80;99.90
20057;DHT22;10189;49.546;7.906;2023-01-25T00:46:46;-0.80;99.90
20057;DHT22;10189;49.546;7.906;2023-01-25T00:49:21;-0.80;99.90
20057;DHT22;10189;49.546;7.906;2023-01-25T00:51:49;-0.90;99.90
20057;DHT22;10189;49.546;7.906;2023-01-25T00:54:16;-0.90;99.90
20057;DHT22;10189;49.546;7.906;2023-01-25T00:56:44;-0.90;99.90
20057;DHT22;10189;49.546;7.906;2023-01-25T00:59:11;-1.00;99.90
20057;DHT22;10189;49.546;7.906;2023-01-25T01:01:42;-1.00;99.90
20057;DHT22;10189;49.546;7.906;2023-01-25T01:04:09;-0.90;99.90
20057;DHT22;10189;49.546;7.906;2023-01-25T01:06:38;-0.90;99.90
20057;DHT22;10189;49.546;7.906;2023-01-25T01:09:06;-0.80;99.90
20057;DHT22;10189;49.546;7.906;2023-01-25T01:11:35;-0.90;99.90
20057;DHT22;10189;49.546;7.906;2023-01-25T01:14:01;-0.90;99.90
20057;DHT22;10189;49.546;7.906;2023-01-25T01:16:30;-0.90;99.90
20057;DHT22;10189;49.546;7.906;2023-01-25T01:18:56;-0.80;99.90
20057;DHT22;10189;49.546;7.906;2023-01-25T01:21:22;-0.80;99.90
20057;DHT22;10189;49.546;7.906;2023-01-25T01:23:48;-0.80;99.90
20057;DHT22;10189;49.546;7.906;2023-01-25T01:26:16;-0.70;99.90
20057;DHT22;10189;49.546;7.906;2023-01-25T01:28:44;-0.80;99.90
20057;DHT22;10189;49.546;7.906;2023-01-25T01:31:13;-0.80;99.90
20057;DHT22;10189;49.546;7.906;2023-01-25T01:34:09;-0.80;99.90
20057;DHT22;10189;49.546;7.906;2023-01-25T01:36:37;-0.90;99.90
20057;DHT22;10189;49.546;7.906;2023-01-25T01:39:03;-0.80;99.90
20057;DHT22;10189;49.546;7.906;2023-01-25T01:41:30;-0.80;99.90
20057;DHT22;10189;49.546;7.906;2023-01-25T01:43:56;-0.80;99.90
20057;DHT22;10189;49.546;7.906;2023-01-25T01:46:32;-0.80;99.90
20057;DHT22;10189;49.546;7.906;2023-01-25T01:49:24;-0.80;99.90
20057;DHT22;10189;49.546;7.906;2023-01-25T01:57:52;-0.80;99.90
20057;DHT22;10189;49.546;7.906;2023-01-25T02:00:27;-0.80;99.90
20057;DHT22;10189;49.546;7.906;2023-01-25T02:02:59;-0.90;99.90
20057;DHT22;10189;49.546;7.906;2023-01-25T02:05:36;-0.90;99.90
20057;DHT22;10189;49.546;7.906;2023-01-25T02:08:12;-0.90;99.90
20057;DHT22;10189;49.546;7.906;2023-01-25T02:10:41;-0.90;99.90
20057;DHT22;10189;49.546;7.906;2023-01-25T02:13:09;-0.90;99.90
20057;DHT22;10189;49.546;7.906;2023-01-25T02:15:50;-0.90;99.90
20057;DHT22;10189;49.546;7.906;2023-01-25T02:18:17;-0.80;99.90
20057;DHT22;10189;49.546;7.906;2023-01-25T02:20:45;-0.80;99.90
20057;DHT22;10189;49.546;7.906;2023-01-25T02:23:53;-0.80;99.90
20057;DHT22;10189;49.546;7.906;2023-01-25T02:26:25;-0.80;99.90
20057;DHT22;10189;49.546;7.906;2023-01-25T02:28:59;-0.70;99.90
20057;DHT22;10189;49.546;7.906;2023-01-25T02:31:29;-0.80;99.90
20057;DHT22;10189;49.546;7.906;2023-01-25T02:33:55;-0.70;99.90
20057;DHT22;10189;49.546;7.906;2023-01-25T02:36:24;-0.80;99.90
20057;DHT22;10189;49.546;7.906;2023-01-25T02:39:04;-0.80;99.90
20057;DHT22;10189;49.546;7.906;2023-01-25T02:41:41;-0.80;99.90
20057;DHT22;10189;49.546;7.906;2023-01-25T02:46:49;-0.90;99.90
20057;DHT22;10189;49.546;7.906;2023-01-25T02:49:16;-0.90;99.90
20057;DHT22;10189;49.546;7.906;2023-01-25T02:51:45;-0.90;99.90
20057;DHT22;10189;49.546;7.906;2023-01-25T02:54:13;-1.00;99.90
20057;DHT22;10189;49.546;7.906;2023-01-25T02:56:40;-0.90;99.90
20057;DHT22;10189;49.546;7.906;2023-01-25T02:59:08;-0.90;99.90
20057;DHT22;10189;49.546;7.906;2023-01-25T03:01:37;-0.90;99.90
20057;DHT22;10189;49.546;7.906;2023-01-25T03:04:06;-0.90;99.90
20057;DHT22;10189;49.546;7.906;2023-01-25T03:06:33;-0.90;99.90
20057;DHT22;10189;49.546;7.906;2023-01-25T03:09:02;-0.80;99.90
20057;DHT22;10189;49.546;7.906;2023-01-25T03:11:29;-0.80;99.90
20057;DHT22;10189;49.546;7.906;2023-01-25T03:13:56;-0.80;99.90
20057;DHT22;10189;49.546;7.906;2023-01-25T03:16:22;-0.80;99.90
20057;DHT22;10189;49.546;7.906;2023-01-25T03:18:51;-0.80;99.90
20057;DHT22;10189;49.546;7.906;2023-01-25T03:21:18;-0.90;99.90
20057;DHT22;10189;49.546;7.906;2023-01-25T03:23:47;-0.90;99.90
20057;DHT22;10189;49.546;7.906;2023-01-25T03:26:22;-0.80;99.90
20057;DHT22;10189;49.546;7.906;2023-01-25T03:29:09;-0.80;99.90
20057;DHT22;10189;49.546;7.906;2023-01-25T03:31:38;-0.80;99.90
20057;DHT22;10189;49.546;7.906;2023-01-25T03:34:04;-0.80;99.90
20057;DHT22;10189;49.546;7.906;2023-01-25T03:36:34;-0.80;99.90
20057;DHT22;10189;49.546;7.906;2023-01-25T03:39:02;-0.70;99.90
20057;DHT22;10189;49.546;7.906;2023-01-25T03:41:28;-0.70;99.90
20057;DHT22;10189;49.546;7.906;2023-01-25T03:43:57;-0.80;99.90
20057;DHT22;10189;49.546;7.906;2023-01-25T03:46:23;-0.90;99.90
20057;DHT22;10189;49.546;7.906;2023-01-25T03:48:50;-0.90;99.90
20057;DHT22;10189;49.546;7.906;2023-01-25T03:51:16;-0.90;99.90
20057;DHT22;10189;49.546;7.906;2023-01-25T03:53:42;-0.90;99.90
20057;DHT22;10189;49.546;7.906;2023-01-25T03:56:12;-0.90;99.90
20057;DHT22;10189;49.546;7.906;2023-01-25T03:58:52;-1.00;99.90
20057;DHT22;10189;49.546;7.906;2023-01-25T04:01:18;-1.00;99.90
20057;DHT22;10189;49.546;7.906;2023-01-25T04:03:44;-1.00;99.90
20057;DHT22;10189;49.546;7.906;2023-01-25T04:06:11;-1.10;99.90
20057;DHT22;10189;49.546;7.906;2023-01-25T04:08:37;-1.00;99.90
20057;DHT22;10189;49.546;7.906;2023-01-25T04:11:06;-1.00;99.90
20057;DHT22;10189;49.546;7.906;2023-01-25T04:13:34;-0.90;99.90
20057;DHT22;10189;49.546;7.906;2023-01-25T04:16:06;-0.90;99.90
20057;DHT22;10189;49.546;7.906;2023-01-25T04:18:53;-0.90;99.90
20057;DHT22;10189;49.546;7.906;2023-01-25T04:21:19;-0.80;99.90
20057;DHT22;10189;49.546;7.906;2023-01-25T04:23:46;-0.90;99.90
20057;DHT22;10189;49.546;7.906;2023-01-25T04:26:13;-0.90;99.90
20057;DHT22;10189;49.546;7.906;2023-01-25T04:28:42;-0.90;99.90
20057;DHT22;10189;49.546;7.906;2023-01-25T04:31:08;-0.90;99.90
20057;DHT22;10189;49.546;7.906;2023-01-25T04:33:39;-0.90;99.90
20057;DHT22;10189;49.546;7.906;2023-01-25T04:36:07;-0.90;99.90
20057;DHT22;10189;49.546;7.906;2023-01-25T04:38:33;-0.90;99.90
20057;DHT22;10189;49.546;7.906;2023-01-25T04:40:59;-0.90;99.90
20057;DHT22;10189;49.546;7.906;2023-01-25T04:43:25;-0.90;99.90
20057;DHT22;10189;49.546;7.906;2023-01-25T04:45:56;-1.00;99.90
20057;DHT22;10189;49.546;7.906;2023-01-25T04:48:28;-0.90;99.90
20057;DHT22;10189;49.546;7.906;2023-01-25T04:50:58;-1.00;99.90
20057;DHT22;10189;49.546;7.906;2023-01-25T04:53:25;-1.00;99.90
20057;DHT22;10189;49.546;7.906;2023-01-25T04:55:52;-1.10;99.90
20057;DHT22;10189;49.546;7.906;2023-01-25T04:58:18;-1.10;99.90
20057;DHT22;10189;49.546;7.906;2023-01-25T05:00:44;-1.10;99.90
20057;DHT22;10189;49.546;7.906;2023-01-25T05:03:10;-1.10;99.90
20057;DHT22;10189;49.546;7.906;2023-01-25T05:05:37;-1.20;99.90
20057;DHT22;10189;49.546;7.906;2023-01-25T05:08:08;-1.10;99.90
20057;DHT22;10189;49.546;7.906;2023-01-25T05:10:34;-1.10;99.90
20057;DHT22;10189;49.546;7.906;2023-01-25T05:13:23;-1.10;99.90
20057;DHT22;10189;49.546;7.906;2023-01-25T05:15:56;-1.10;99.90
20057;DHT22;10189;49.546;7.906;2023-01-25T05:18:22;-1.10;99.90
20057;DHT22;10189;49.546;7.906;2023-01-25T05:20:53;-1.10;99.90
20057;DHT22;10189;49.546;7.906;2023-01-25T05:23:22;-1.10;99.90
20057;DHT22;10189;49.546;7.906;2023-01-25T05:25:49;-1.10;99.90
20057;DHT22;10189;49.546;7.906;2023-01-25T05:28:34;-1.00;99.90
20057;DHT22;10189;49.546;7.906;2023-01-25T05:31:17;-1.10;99.90
20057;DHT22;10189;49.546;7.906;2023-01-25T05:33:43;-1.10;99.90
20057;DHT22;10189;49.546;7.906;2023-01-25T05:36:09;-1.00;99.90
20057;DHT22;10189;49.546;7.906;2023-01-25T05:38:36;-1.00;99.90
20057;DHT22;10189;49.546;7.906;2023-01-25T05:41:02;-1.00;99.90
20057;DHT22;10189;49.546;7.906;2023-01-25T05:43:28;-1.00;99.90
20057;DHT22;10189;49.546;7.906;2023-01-25T05:45:55;-1.00;99.90
20057;DHT22;10189;49.546;7.906;2023-01-25T05:48:23;-1.00;99.90
20057;DHT22;10189;49.546;7.906;2023-01-25T05:50:49;-1.10;99.90
20057;DHT22;10189;49.546;7.906;2023-01-25T05:53:26;-1.00;99.90
20057;DHT22;10189;49.546;7.906;2023-01-25T05:55:54;-1.10;99.90
20057;DHT22;10189;49.546;7.906;2023-01-25T05:58:21;-1.00;99.90
20057;DHT22;10189;49.546;7.906;2023-01-25T06:00:47;-1.00;99.90
20057;DHT22;10189;49.546;7.906;2023-01-25T06:03:23;-1.00;99.90
20057;DHT22;10189;49.546;7.906;2023-01-25T06:05:54;-0.90;99.90
20057;DHT22;10189;49.546;7.906;2023-01-25T06:08:27;-1.00;99.90
20057;DHT22;10189;49.546;7.906;2023-01-25T06:10:56;-1.10;99.90
20057;DHT22;10189;49.546;7.906;2023-01-25T06:13:23;-1.10;99.90
20057;DHT22;10189;49.546;7.906;2023-01-25T06:15:56;-1.20;99.90
20057;DHT22;10189;49.546;7.906;2023-01-25T06:18:48;-1.10;99.90
20057;DHT22;10189;49.546;7.906;2023-01-25T06:21:16;-1.20;99.90
20057;DHT22;10189;49.546;7.906;2023-01-25T06:23:42;-1.20;99.90
20057;DHT22;10189;49.546;7.906;2023-01-25T06:26:12;-1.10;99.90
20057;DHT22;10189;49.546;7.906;2023-01-25T06:28:39;-1.10;99.90
20057;DHT22;10189;49.546;7.906;2023-01-25T06:31:11;-1.20;99.90
20057;DHT22;10189;49.546;7.906;2023-01-25T06:33:39;-1.10;99.90
20057;DHT22;10189;49.546;7.906;2023-01-25T06:36:11;-1.00;99.90
20057;DHT22;10189;49.546;7.906;2023-01-25T06:38:38;-1.00;99.90
20057;DHT22;10189;49.546;7.906;2023-01-25T06:41:06;-1.00;99.90
20057;DHT22;10189;49.546;7.906;2023-01-25T06:43:34;-1.00;99.90
20057;DHT22;10189;49.546;7.906;2023-01-25T06:46:02;-1.00;99.90
20057;DHT22;10189;49.546;7.906;2023-01-25T06:48:30;-1.10;99.90
20057;DHT22;10189;49.546;7.906;2023-01-25T06:51:02;-1.10;99.90
20057;DHT22;10189;49.546;7.906;2023-01-25T06:53:31;-1.10;99.90
20057;DHT22;10189;49.546;7.906;2023-01-25T06:56:22;-1.10;99.90
20057;DHT22;10189;49.546;7.906;2023-01-25T06:58:48;-1.10;99.90
20057;DHT22;10189;49.546;7.906;2023-01-25T07:01:17;-1.00;99.90
20057;DHT22;10189;49.546;7.906;2023-01-25T07:03:50;-1.00;99.90
20057;DHT22;10189;49.546;7.906;2023-01-25T07:06:18;-1.00;99.90
20057;DHT22;10189;49.546;7.906;2023-01-25T07:08:44;-1.00;99.90
20057;DHT22;10189;49.546;7.906;2023-01-25T07:11:11;-1.10;99.90
20057;DHT22;10189;49.546;7.906;2023-01-25T07:13:42;-1.10;99.90
20057;DHT22;10189;49.546;7.906;2023-01-25T07:16:16;-1.20;99.90
20057;DHT22;10189;49.546;7.906;2023-01-25T07:18:44;-1.20;99.90
20057;DHT22;10189;49.546;7.906;2023-01-25T07:21:15;-1.20;99.90
20057;DHT22;10189;49.546;7.906;2023-01-25T07:23:47;-1.20;99.90
20057;DHT22;10189;49.546;7.906;2023-01-25T07:26:24;-1.20;99.90
20057;DHT22;10189;49.546;7.906;2023-01-25T07:28:51;-1.20;99.90
20057;DHT22;10189;49.546;7.906;2023-01-25T07:31:18;-1.30;99.90
20057;DHT22;10189;49.546;7.906;2023-01-25T07:33:53;-1.20;99.90
20057;DHT22;10189;49.546;7.906;2023-01-25T07:36:20;-1.30;99.90
20057;DHT22;10189;49.546;7.906;2023-01-25T07:38:47;-1.30;99.90
20057;DHT22;10189;49.546;7.906;2023-01-25T07:41:13;-1.20;99.90
20057;DHT22;10189;49.546;7.906;2023-01-25T07:43:41;-1.20;99.90
20057;DHT22;10189;49.546;7.906;2023-01-25T07:46:11;-1.20;99.90
20057;DHT22;10189;49.546;7.906;2023-01-25T07:48:39;-1.20;99.90
20057;DHT22;10189;49.546;7.906;2023-01-25T07:51:10;-1.20;99.90
20057;DHT22;10189;49.546;7.906;2023-01-25T07:53:42;-1.20;99.90
20057;DHT22;10189;49.546;7.906;2023-01-25T07:56:12;-1.20;99.90
20057;DHT22;10189;49.546;7.906;2023-01-25T07:58:42;-1.20;99.90
20057;DHT22;10189;49.546;7.906;2023-01-25T08:01:13;-1.20;99.90
20057;DHT22;10189;49.546;7.906;2023-01-25T08:03:40;-1.30;99.90
20057;DHT22;10189;49.546;7.906;2023-01-25T08:06:08;-1.20;99.90
20057;DHT22;10189;49.546;7.906;2023-01-25T08:08:38;-1.10;99.90
20057;DHT22;10189;49.546;7.906;2023-01-25T08:11:20;-1.10;99.90
20057;DHT22;10189;49.546;7.906;2023-01-25T08:13:48;-1.00;99.90
20057;DHT22;10189;49.546;7.906;2023-01-25T08:16:19;-1.00;99.90
20057;DHT22;10189;49.546;7.906;2023-01-25T08:18:47;-1.10;99.90
20057;DHT22;10189;49.546;7.906;2023-01-25T08:21:24;-1.10;99.90
20057;DHT22;10189;49.546;7.906;2023-01-25T08:23:58;-1.00;99.90
20057;DHT22;10189;49.546;7.906;2023-01-25T08:26:25;-1.00;99.90
20057;DHT22;10189;49.546;7.906;2023-01-25T08:28:52;-1.10;99.90
20057;DHT22;10189;49.546;7.906;2023-01-25T08:31:24;-1.10;99.90
20057;DHT22;10189;49.546;7.906;2023-01-25T08:33:52;-1.00;99.90
20057;DHT22;10189;49.546;7.906;2023-01-25T08:36:19;-1.00;99.90
20057;DHT22;10189;49.546;7.906;2023-01-25T08:38:53;-1.00;99.90
20057;DHT22;10189;49.546;7.906;2023-01-25T08:41:24;-1.10;99.90
20057;DHT22;10189;49.546;7.906;2023-01-25T08:43:52;-1.00;99.90
20057;DHT22;10189;49.546;7.906;2023-01-25T08:46:19;-1.10;99.90
20057;DHT22;10189;49.546;7.906;2023-01-25T08:48:46;-1.20;99.90
20057;DHT22;10189;49.546;7.906;2023-01-25T08:51:14;-1.10;99.90
20057;DHT22;10189;49.546;7.906;2023-01-25T08:53:41;-1.10;99.90
20057;DHT22;10189;49.546;7.906;2023-01-25T08:56:13;-1.20;99.90
20057;DHT22;10189;49.546;7.906;2023-01-25T08:58:45;-1.20;99.90
20057;DHT22;10189;49.546;7.906;2023-01-25T09:01:14;-1.10;99.90
20057;DHT22;10189;49.546;7.906;2023-01-25T09:03:45;-1.10;99.90
20057;DHT22;10189;49.546;7.906;2023-01-25T09:06:13;-1.20;99.90
20057;DHT22;10189;49.546;7.906;2023-01-25T09:08:40;-1.30;99.90
20057;DHT22;10189;49.546;7.906;2023-01-25T09:11:11;-1.40;99.90
20057;DHT22;10189;49.546;7.906;2023-01-25T09:13:40;-1.40;99.90
20057;DHT22;10189;49.546;7.906;2023-01-25T09:16:11;-1.30;99.90
20057;DHT22;10189;49.546;7.906;2023-01-25T09:18:40;-1.20;99.90
20057;DHT22;10189;49.546;7.906;2023-01-25T09:21:10;-1.20;99.90
20057;DHT22;10189;49.546;7.906;2023-01-25T09:23:37;-1.20;99.90
20057;DHT22;10189;49.546;7.906;2023-01-25T09:26:04;-1.20;99.90
20057;DHT22;10189;49.546;7.906;2023-01-25T09:28:32;-1.20;99.90
20057;DHT22;10189;49.546;7.906;2023-01-25T09:31:05;-1.20;99.90
20057;DHT22;10189;49.546;7.906;2023-01-25T09:33:54;-1.30;99.90
20057;DHT22;10189;49.546;7.906;2023-01-25T09:36:21;-1.30;99.90
20057;DHT22;10189;49.546;7.906;2023-01-25T09:38:46;-1.40;99.90
20057;DHT22;10189;49.546;7.906;2023-01-25T09:46:57;-1.40;99.90
20057;DHT22;10189;49.546;7.906;2023-01-25T09:52:15;-1.30;99.90
20057;DHT22;10189;49.546;7.906;2023-01-25T09:54:46;-1.20;99.90
20057;DHT22;10189;49.546;7.906;2023-01-25T09:57:33;-1.20;99.90
20057;DHT22;10189;49.546;7.906;2023-01-25T10:00:20;-1.20;99.90
20057;DHT22;10189;49.546;7.906;2023-01-25T10:03:40;-1.20;99.90
20057;DHT22;10189;49.546;7.906;2023-01-25T10:05:58;-1.20;99.90
20057;DHT22;10189;49.546;7.906;2023-01-25T10:08:43;-1.10;99.90
20057;DHT22;10189;49.546;7.906;2023-01-25T10:11:33;-1.20;99.90
20057;DHT22;10189;49.546;7.906;2023-01-25T10:14:10;-1.20;99.90
20057;DHT22;10189;49.546;7.906;2023-01-25T10:19:39;-1.20;99.90
20057;DHT22;10189;49.546;7.906;2023-01-25T10:22:28;-1.20;99.90
20057;DHT22;10189;49.546;7.906;2023-01-25T10:25:44;-1.20;99.90
20057;DHT22;10189;49.546;7.906;2023-01-25T10:28:41;-1.30;99.90
20057;DHT22;10189;49.546;7.906;2023-01-25T10:31:33;-1.30;99.90
20057;DHT22;10189;49.546;7.906;2023-01-25T10:36:57;-1.10;99.90
20057;DHT22;10189;49.546;7.906;2023-01-25T10:39:38;-1.00;99.90
20057;DHT22;10189;49.546;7.906;2023-01-25T10:42:11;-1.00;99.90
20057;DHT22;10189;49.546;7.906;2023-01-25T10:44:40;-0.90;99.90
20057;DHT22;10189;49.546;7.906;2023-01-25T10:47:24;-1.00;99.90
20057;DHT22;10189;49.546;7.906;2023-01-25T10:49:58;-1.10;99.90
20057;DHT22;10189;49.546;7.906;2023-01-25T10:52:27;-1.10;99.90
20057;DHT22;10189;49.546;7.906;2023-01-25T10:55:16;-1.10;99.90
20057;DHT22;10189;49.546;7.906;2023-01-25T10:57:49;-1.10;99.90
20057;DHT22;10189;49.546;7.906;2023-01-25T11:00:36;-1.00;99.90
20057;DHT22;10189;49.546;7.906;2023-01-25T11:03:04;-1.10;99.90
20057;DHT22;10189;49.546;7.906;2023-01-25T11:05:35;-1.10;99.90
20057;DHT22;10189;49.546;7.906;2023-01-25T11:08:31;-1.10;99.90
20057;DHT22;10189;49.546;7.906;2023-01-25T11:11:20;-1.10;99.90
20057;DHT22;10189;49.546;7.906;2023-01-25T11:13:55;-1.10;99.90
20057;DHT22;10189;49.546;7.906;2023-01-25T11:16:34;-1.20;99.90
20057;DHT22;10189;49.546;7.906;2023-01-25T11:22:04;-1.20;99.90
20057;DHT22;10189;49.546;7.906;2023-01-25T11:24:48;-1.10;99.90
20057;DHT22;10189;49.546;7.906;2023-01-25T11:27:26;-1.10;99.90
20057;DHT22;10189;49.546;7.906;2023-01-25T11:32:30;-1.10;99.90
20057;DHT22;10189;49.546;7.906;2023-01-25T11:34:57;-1.20;99.90
20057;DHT22;10189;49.546;7.906;2023-01-25T11:40:16;-1.30;99.90
20057;DHT22;10189;49.546;7.906;2023-01-25T11:51:53;-1.30;99.90
20057;DHT22;10189;49.546;7.906;2023-01-25T12:12:29;-1.20;99.90
20057;DHT22;10189;49.546;7.906;2023-01-25T12:15:41;-1.20;99.90
20057;DHT22;10189;49.546;7.906;2023-01-25T12:24:38;-1.00;99.90
20057;DHT22;10189;49.546;7.906;2023-01-25T12:30:15;-1.40;99.90
20057;DHT22;10189;49.546;7.906;2023-01-25T12:32:59;-1.40;99.90
20057;DHT22;10189;49.546;7.906;2023-01-25T12:42:02;-1.40;99.90
20057;DHT22;10189;49.546;7.906;2023-01-25T12:44:53;-1.20;99.90
20057;DHT22;10189;49.546;7.906;2023-01-25T12:47:36;-1.20;99.90
20057;DHT22;10189;49.546;7.906;2023-01-25T12:50:27;-1.20;99.90
20057;DHT22;10189;49.546;7.906;2023-01-25T12:55:32;-1.20;99.90
20057;DHT22;10189;49.546;7.906;2023-01-25T13:01:07;-1.30;99.90
20057;DHT22;10189;49.546;7.906;2023-01-25T13:09:38;-1.20;99.90
20057;DHT22;10189;49.546;7.906;2023-01-25T13:12:21;-1.30;99.90
20057;DHT22;10189;49.546;7.906;2023-01-25T13:14:49;-1.30;99.90
20057;DHT22;10189;49.546;7.906;2023-01-25T13:19:52;-1.20;99.90
20057;DHT22;10189;49.546;7.906;2023-01-25T13:25:19;-1.10;99.90
20057;DHT22;10189;49.546;7.906;2023-01-25T13:27:46;-1.10;99.90
20057;DHT22;10189;49.546;7.906;2023-01-25T13:30:24;-1.10;99.90
20057;DHT22;10189;49.546;7.906;2023-01-25T13:33:05;-1.30;99.90
20057;DHT22;10189;49.546;7.906;2023-01-25T13:35:37;-1.30;99.90
20057;DHT22;10189;49.546;7.906;2023-01-25T13:40:37;-1.20;99.90
20057;DHT22;10189;49.546;7.906;2023-01-25T13:43:05;-1.30;99.90
20057;DHT22;10189;49.546;7.906;2023-01-25T13:45:47;-1.40;99.90
20057;DHT22;10189;49.546;7.906;2023-01-25T13:48:21;-1.30;99.90
20057;DHT22;10189;49.546;7.906;2023-01-25T13:50:53;-1.20;99.90
20057;DHT22;10189;49.546;7.906;2023-01-25T13:53:24;-1.30;99.90
20057;DHT22;10189;49.546;7.906;2023-01-25T13:55:56;-1.40;99.90
20057;DHT22;10189;49.546;7.906;2023-01-25T13:58:31;-1.40;99.90
20057;DHT22;10189;49.546;7.906;2023-01-25T14:01:13;-1.50;99.90
20057;DHT22;10189;49.546;7.906;2023-01-25T14:03:50;-1.50;99.90
20057;DHT22;10189;49.546;7.906;2023-01-25T14:06:26;-1.40;99.90
20057;DHT22;10189;49.546;7.906;2023-01-25T14:08:57;-1.50;99.90
20057;DHT22;10189;49.546;7.906;2023-01-25T14:11:30;-1.60;99.90
20057;DHT22;10189;49.546;7.906;2023-01-25T14:14:16;-1.60;99.90
20057;DHT22;10189;49.546;7.906;2023-01-25T14:16:45;-1.80;99.90
20057;DHT22;10189;49.546;7.906;2023-01-25T14:19:26;-1.70;99.90
20057;DHT22;10189;49.546;7.906;2023-01-25T14:27:56;-1.80;99.90
20057;DHT22;10189;49.546;7.906;2023-01-25T14:30:33;-1.70;99.90
20057;DHT22;10189;49.546;7.906;2023-01-25T14:33:17;-1.60;99.90
20057;DHT22;10189;49.546;7.906;2023-01-25T14:35:50;-1.70;99.90
20057;DHT22;10189;49.546;7.906;2023-01-25T14:38:22;-1.70;99.90
20057;DHT22;10189;49.546;7.906;2023-01-25T14:41:28;-1.70;99.90
20057;DHT22;10189;49.546;7.906;2023-01-25T14:44:08;-1.60;99.90
20057;DHT22;10189;49.546;7.906;2023-01-25T14:46:37;-1.60;99.90
20057;DHT22;10189;49.546;7.906;2023-01-25T14:51:46;-1.60;99.90
20057;DHT22;10189;49.546;7.906;2023-01-25T14:54:18;-1.50;99.90
20057;DHT22;10189;49.546;7.906;2023-01-25T14:56:49;-1.70;99.90
20057;DHT22;10189;49.546;7.906;2023-01-25T14:59:23;-1.70;99.90
20057;DHT22;10189;49.546;7.906;2023-01-25T15:01:55;-1.70;99.90
20057;DHT22;10189;49.546;7.906;2023-01-25T15:04:57;-1.60;99.90
20057;DHT22;10189;49.546;7.906;2023-01-25T15:07:43;-1.50;99.90
20057;DHT22;10189;49.546;7.906;2023-01-25T15:10:25;-1.50;99.90
20057;DHT22;10189;49.546;7.906;2023-01-25T15:15:52;-1.60;99.90
20057;DHT22;10189;49.546;7.906;2023-01-25T15:18:45;-1.50;99.90
20057;DHT22;10189;49.546;7.906;2023-01-25T15:21:25;-1.30;99.90
20057;DHT22;10189;49.546;7.906;2023-01-25T15:23:54;-1.30;99.90
20057;DHT22;10189;49.546;7.906;2023-01-25T15:28:53;-1.40;99.90
20057;DHT22;10189;49.546;7.906;2023-01-25T15:31:25;-1.40;99.90
20057;DHT22;10189;49.546;7.906;2023-01-25T15:33:54;-1.60;99.90
20057;DHT22;10189;49.546;7.906;2023-01-25T15:36:20;-1.50;99.90
20057;DHT22;10189;49.546;7.906;2023-01-25T15:38:46;-1.50;99.90
20057;DHT22;10189;49.546;7.906;2023-01-25T15:41:13;-1.60;99.90
20057;DHT22;10189;49.546;7.906;2023-01-25T15:43:39;-1.60;99.90
20057;DHT22;10189;49.546;7.906;2023-01-25T15:46:14;-1.60;99.90
20057;DHT22;10189;49.546;7.906;2023-01-25T15:48:44;-1.70;99.90
20057;DHT22;10189;49.546;7.906;2023-01-25T15:51:12;-1.80;99.90
20057;DHT22;10189;49.546;7.906;2023-01-25T15:53:38;-1.80;99.90
20057;DHT22;10189;49.546;7.906;2023-01-25T15:56:17;-1.80;99.90
20057;DHT22;10189;49.546;7.906;2023-01-25T15:58:48;-1.80;99.90
20057;DHT22;10189;49.546;7.906;2023-01-25T16:01:16;-1.80;99.90
20057;DHT22;10189;49.546;7.906;2023-01-25T16:03:54;-1.70;99.90
20057;DHT22;10189;49.546;7.906;2023-01-25T16:08:46;-1.60;99.90
20057;DHT22;10189;49.546;7.906;2023-01-25T16:11:13;-1.70;99.90
20057;DHT22;10189;49.546;7.906;2023-01-25T16:13:39;-1.70;99.90
20057;DHT22;10189;49.546;7.906;2023-01-25T16:16:16;-1.70;99.90
20057;DHT22;10189;49.546;7.906;2023-01-25T16:18:43;-1.60;99.90
20057;DHT22;10189;49.546;7.906;2023-01-25T16:21:10;-1.70;99.90
20057;DHT22;10189;49.546;7.906;2023-01-25T16:23:37;-1.70;99.90
20057;DHT22;10189;49.546;7.906;2023-01-25T16:26:05;-1.90;99.90
20057;DHT22;10189;49.546;7.906;2023-01-25T16:28:39;-2.00;99.90
20057;DHT22;10189;49.546;7.906;2023-01-25T16:31:07;-2.00;99.90
20057;DHT22;10189;49.546;7.906;2023-01-25T16:33:36;-2.00;99.90
20057;DHT22;10189;49.546;7.906;2023-01-25T16:36:11;-1.90;99.90
20057;DHT22;10189;49.546;7.906;2023-01-25T16:38:40;-1.90;99.90
20057;DHT22;10189;49.546;7.906;2023-01-25T16:41:06;-1.90;99.90
20057;DHT22;10189;49.546;7.906;2023-01-25T16:43:32;-2.00;99.90
20057;DHT22;10189;49.546;7.906;2023-01-25T16:45:58;-2.00;99.90
20057;DHT22;10189;49.546;7.906;2023-01-25T16:48:24;-2.00;99.90
20057;DHT22;10189;49.546;7.906;2023-01-25T16:50:50;-1.90;99.90
20057;DHT22;10189;49.546;7.906;2023-01-25T16:53:16;-1.90;99.90
20057;DHT22;10189;49.546;7.906;2023-01-25T16:55:42;-2.00;99.90
20057;DHT22;10189;49.546;7.906;2023-01-25T16:58:08;-2.00;99.90
20057;DHT22;10189;49.546;7.906;2023-01-25T17:00:34;-1.90;99.90
20057;DHT22;10189;49.546;7.906;2023-01-25T17:03:01;-1.80;99.90
20057;DHT22;10189;49.546;7.906;2023-01-25T17:05:27;-1.90;99.90
20057;DHT22;10189;49.546;7.906;2023-01-25T17:07:57;-1.90;99.90
20057;DHT22;10189;49.546;7.906;2023-01-25T17:10:23;-2.00;99.90
20057;DHT22;10189;49.546;7.906;2023-01-25T17:12:49;-2.00;99.90
20057;DHT22;10189;49.546;7.906;2023-01-25T17:15:16;-2.00;99.90
20057;DHT22;10189;49.546;7.906;2023-01-25T17:17:44;-2.00;99.90
20057;DHT22;10189;49.546;7.906;2023-01-25T17:20:11;-1.90;99.90
20057;DHT22;10189;49.546;7.906;2023-01-25T17:22:36;-2.00;99.90
20057;DHT22;10189;49.546;7.906;2023-01-25T17:25:04;-2.00;99.90
20057;DHT22;10189;49.546;7.906;2023-01-25T17:27:30;-1.90;99.90
20057;DHT22;10189;49.546;7.906;2023-01-25T17:29:56;-1.90;99.90
20057;DHT22;10189;49.546;7.906;2023-01-25T17:32:22;-1.90;99.90
20057;DHT22;10189;49.546;7.906;2023-01-25T17:34:48;-1.80;99.90
20057;DHT22;10189;49.546;7.906;2023-01-25T17:37:15;-1.90;99.90
20057;DHT22;10189;49.546;7.906;2023-01-25T17:39:40;-1.90;99.90
20057;DHT22;10189;49.546;7.906;2023-01-25T17:42:06;-1.90;99.90
20057;DHT22;10189;49.546;7.906;2023-01-25T17:44:35;-1.90;99.90
20057;DHT22;10189;49.546;7.906;2023-01-25T17:47:01;-1.90;99.90
20057;DHT22;10189;49.546;7.906;2023-01-25T17:49:26;-1.90;99.90
20057;DHT22;10189;49.546;7.906;2023-01-25T17:51:53;-1.90;99.90